Smit Barbados — MSDU8 — position and weather

sailwx.info

Track history (hours):
 
Tides and Currents Weather Stations Pressure Air Temp Water Temp Dewpoint Dewpoint Depression Visibility Wind Speed Wind Dir Waves Ship Positions

Smit Barbados

Last reported at 2014-Aug-31 01:33 UTC. Time now 2014-Aug-31 02:34 UTC.
Position N 53°28' W 003°01'.

Length 30 m; draft 4.8 m.

Type: Tug. MMSI: 235055303.

Date/timePositionNaut miles runAvg speedWind from/ knotsBaromVisibWave heightAir tempDewpointWater temp
2014-Aug-31 01:33N 53°28' W 003°01'1 0.5
2014-Aug-31 00:26N 53°27' W 003°01'0 0.3
2014-Aug-30 23:29N 53°27' W 003°01'0 0.2
2014-Aug-30 22:04N 53°27' W 003°01'1 0.1
2014-Aug-30 14:14N 53°26' W 003°00'1 0.8
2014-Aug-30 12:31N 53°27' W 003°01'0 0.0
2014-Aug-30 04:32N 53°27' W 003°01'1 0.6
2014-Aug-30 03:29N 53°28' W 003°02'0 0.1
2014-Aug-30 02:07N 53°28' W 003°02'0 0.0
2014-Aug-30 01:18N 53°28' W 003°02'0 0.0
2014-Aug-30 00:23N 53°28' W 003°02'1 0.1
2014-Aug-29 12:23N 53°27' W 003°01'0 0.1
2014-Aug-29 11:12N 53°27' W 003°01'3 4.4
2014-Aug-29 10:33N 53°29' W 003°04'3 2.4
2014-Aug-29 09:24N 53°27' W 003°01'0 0.3
2014-Aug-29 08:14N 53°27' W 003°01'0 0.3
2014-Aug-29 07:27N 53°27' W 003°01'2 0.0
2014-Aug-27 03:33N 53°26' W 002°60'1 0.0
2014-Aug-25 05:31N 53°27' W 003°01'0 0.2
2014-Aug-25 04:32N 53°27' W 003°01'0 0.2
2014-Aug-25 03:20N 53°27' W 003°01'0 0.0
2014-Aug-24 22:25N 53°27' W 003°01'1 0.3
2014-Aug-24 20:33N 53°28' W 003°01'0 0.0
2014-Aug-22 20:07N 53°28' W 003°01'2 0.9
2014-Aug-22 18:18N 53°28' W 003°04'2 0.1
2014-Aug-21 07:24N 53°27' W 003°01'  
Track history (hours):
 
Tides and Currents Weather Stations Pressure Air Temp Water Temp Dewpoint Dewpoint Depression Visibility Wind Speed Wind Dir Waves Ship Positions

Smit Barbados

Last reported at 2014-Aug-31 01:33 UTC. Time now 2014-Aug-31 02:34 UTC.
Position N 53°28' W 003°01'.

Length 30 m; draft 4.8 m.

Type: Tug. MMSI: 235055303.

Date/timePositionNaut miles runAvg speedWind from/ knotsBaromVisibWave heightAir tempDewpointWater temp
2014-Aug-31 01:33N 53°28' W 003°01'1 0.5
2014-Aug-31 00:26N 53°27' W 003°01'0 0.3
2014-Aug-30 23:29N 53°27' W 003°01'0 0.2
2014-Aug-30 22:04N 53°27' W 003°01'1 0.1
2014-Aug-30 14:14N 53°26' W 003°00'1 0.8
2014-Aug-30 12:31N 53°27' W 003°01'0 0.0
2014-Aug-30 04:32N 53°27' W 003°01'1 0.6
2014-Aug-30 03:29N 53°28' W 003°02'0 0.1
2014-Aug-30 02:07N 53°28' W 003°02'0 0.0
2014-Aug-30 01:18N 53°28' W 003°02'0 0.0
2014-Aug-30 00:23N 53°28' W 003°02'1 0.1
2014-Aug-29 12:23N 53°27' W 003°01'0 0.1
2014-Aug-29 11:12N 53°27' W 003°01'3 4.4
2014-Aug-29 10:33N 53°29' W 003°04'3 2.4
2014-Aug-29 09:24N 53°27' W 003°01'0 0.3
2014-Aug-29 08:14N 53°27' W 003°01'0 0.3
2014-Aug-29 07:27N 53°27' W 003°01'2 0.0
2014-Aug-27 03:33N 53°26' W 002°60'1 0.0
2014-Aug-25 05:31N 53°27' W 003°01'0 0.2
2014-Aug-25 04:32N 53°27' W 003°01'0 0.2
2014-Aug-25 03:20N 53°27' W 003°01'0 0.0
2014-Aug-24 22:25N 53°27' W 003°01'1 0.3
2014-Aug-24 20:33N 53°28' W 003°01'0 0.0
2014-Aug-22 20:07N 53°28' W 003°01'2 0.9
2014-Aug-22 18:18N 53°28' W 003°04'2 0.1
2014-Aug-21 07:24N 53°27' W 003°01'  

Dump ship's entire track history